sensor_id;sensor_type;location;lat;lon;timestamp;P1;durP1;ratioP1;P2;durP2;ratioP2
22967;SDS011;11650;48.106;-1.696;2024-01-30T00:02:21;24.83;;;11.10;;
22967;SDS011;11650;48.106;-1.696;2024-01-30T00:04:46;25.60;;;11.17;;
22967;SDS011;11650;48.106;-1.696;2024-01-30T00:07:12;24.23;;;10.97;;
22967;SDS011;11650;48.106;-1.696;2024-01-30T00:09:38;29.73;;;11.57;;
22967;SDS011;11650;48.106;-1.696;2024-01-30T00:12:05;29.23;;;11.83;;
22967;SDS011;11650;48.106;-1.696;2024-01-30T00:14:31;34.03;;;11.83;;
22967;SDS011;11650;48.106;-1.696;2024-01-30T00:16:57;30.03;;;10.97;;
22967;SDS011;11650;48.106;-1.696;2024-01-30T00:19:22;31.90;;;11.60;;
22967;SDS011;11650;48.106;-1.696;2024-01-30T00:21:48;35.27;;;12.13;;
22967;SDS011;11650;48.106;-1.696;2024-01-30T00:24:13;30.80;;;12.27;;
22967;SDS011;11650;48.106;-1.696;2024-01-30T00:26:39;27.40;;;11.33;;
22967;SDS011;11650;48.106;-1.696;2024-01-30T00:29:05;29.60;;;11.30;;
22967;SDS011;11650;48.106;-1.696;2024-01-30T00:31:31;28.40;;;12.03;;
22967;SDS011;11650;48.106;-1.696;2024-01-30T00:33:56;35.30;;;11.77;;
22967;SDS011;11650;48.106;-1.696;2024-01-30T00:36:22;29.07;;;11.60;;
22967;SDS011;11650;48.106;-1.696;2024-01-30T00:38:48;32.70;;;11.80;;
22967;SDS011;11650;48.106;-1.696;2024-01-30T00:41:13;32.30;;;11.43;;
22967;SDS011;11650;48.106;-1.696;2024-01-30T00:43:39;33.47;;;13.10;;
22967;SDS011;11650;48.106;-1.696;2024-01-30T00:46:05;30.97;;;12.27;;
22967;SDS011;11650;48.106;-1.696;2024-01-30T00:48:30;33.80;;;13.03;;
22967;SDS011;11650;48.106;-1.696;2024-01-30T00:50:56;36.03;;;12.17;;
22967;SDS011;11650;48.106;-1.696;2024-01-30T00:53:21;36.00;;;13.40;;
22967;SDS011;11650;48.106;-1.696;2024-01-30T00:55:47;38.17;;;12.67;;
22967;SDS011;11650;48.106;-1.696;2024-01-30T00:58:13;36.07;;;13.07;;
22967;SDS011;11650;48.106;-1.696;2024-01-30T01:00:39;32.30;;;12.47;;
22967;SDS011;11650;48.106;-1.696;2024-01-30T01:03:04;35.40;;;12.47;;
22967;SDS011;11650;48.106;-1.696;2024-01-30T01:05:30;34.03;;;12.20;;
22967;SDS011;11650;48.106;-1.696;2024-01-30T01:07:56;32.40;;;13.60;;
22967;SDS011;11650;48.106;-1.696;2024-01-30T01:10:21;35.13;;;12.80;;
22967;SDS011;11650;48.106;-1.696;2024-01-30T01:12:47;31.60;;;11.93;;
22967;SDS011;11650;48.106;-1.696;2024-01-30T01:15:13;36.73;;;12.63;;
22967;SDS011;11650;48.106;-1.696;2024-01-30T01:17:39;35.37;;;12.70;;
22967;SDS011;11650;48.106;-1.696;2024-01-30T01:20:05;42.90;;;13.60;;
22967;SDS011;11650;48.106;-1.696;2024-01-30T01:22:32;40.57;;;13.57;;
22967;SDS011;11650;48.106;-1.696;2024-01-30T01:25:01;38.53;;;12.70;;
22967;SDS011;11650;48.106;-1.696;2024-01-30T01:27:27;38.73;;;12.33;;
22967;SDS011;11650;48.106;-1.696;2024-01-30T01:29:52;32.63;;;11.77;;
22967;SDS011;11650;48.106;-1.696;2024-01-30T01:32:18;41.97;;;13.33;;
22967;SDS011;11650;48.106;-1.696;2024-01-30T01:34:44;37.90;;;12.77;;
22967;SDS011;11650;48.106;-1.696;2024-01-30T01:37:10;34.83;;;13.00;;
22967;SDS011;11650;48.106;-1.696;2024-01-30T01:39:36;31.57;;;12.30;;
22967;SDS011;11650;48.106;-1.696;2024-01-30T01:42:01;33.37;;;12.67;;
22967;SDS011;11650;48.106;-1.696;2024-01-30T01:44:27;22.73;;;9.70;;
22967;SDS011;11650;48.106;-1.696;2024-01-30T01:46:53;27.90;;;9.80;;
22967;SDS011;11650;48.106;-1.696;2024-01-30T01:49:20;25.20;;;9.90;;
22967;SDS011;11650;48.106;-1.696;2024-01-30T01:51:48;29.23;;;9.07;;
22967;SDS011;11650;48.106;-1.696;2024-01-30T01:54:14;29.50;;;8.70;;
22967;SDS011;11650;48.106;-1.696;2024-01-30T01:56:40;23.70;;;8.00;;
22967;SDS011;11650;48.106;-1.696;2024-01-30T01:59:08;20.73;;;7.20;;
22967;SDS011;11650;48.106;-1.696;2024-01-30T02:01:34;18.07;;;6.60;;
22967;SDS011;11650;48.106;-1.696;2024-01-30T02:04:03;22.03;;;7.43;;
22967;SDS011;11650;48.106;-1.696;2024-01-30T02:06:29;21.93;;;6.57;;
22967;SDS011;11650;48.106;-1.696;2024-01-30T02:08:56;18.33;;;5.97;;
22967;SDS011;11650;48.106;-1.696;2024-01-30T02:11:22;20.87;;;6.13;;
22967;SDS011;11650;48.106;-1.696;2024-01-30T02:13:48;23.13;;;6.53;;
22967;SDS011;11650;48.106;-1.696;2024-01-30T02:16:15;17.33;;;5.60;;
22967;SDS011;11650;48.106;-1.696;2024-01-30T02:18:42;15.57;;;5.13;;
22967;SDS011;11650;48.106;-1.696;2024-01-30T02:21:10;17.57;;;5.10;;
22967;SDS011;11650;48.106;-1.696;2024-01-30T02:23:36;20.87;;;5.20;;
22967;SDS011;11650;48.106;-1.696;2024-01-30T02:26:02;9.23;;;4.33;;
22967;SDS011;11650;48.106;-1.696;2024-01-30T02:28:28;18.30;;;5.40;;
22967;SDS011;11650;48.106;-1.696;2024-01-30T02:30:54;15.50;;;4.30;;
22967;SDS011;11650;48.106;-1.696;2024-01-30T02:33:19;13.53;;;3.90;;
22967;SDS011;11650;48.106;-1.696;2024-01-30T02:35:47;16.30;;;4.80;;
22967;SDS011;11650;48.106;-1.696;2024-01-30T02:38:13;21.40;;;4.47;;
22967;SDS011;11650;48.106;-1.696;2024-01-30T02:40:38;11.77;;;4.50;;
22967;SDS011;11650;48.106;-1.696;2024-01-30T02:43:04;14.07;;;4.53;;
22967;SDS011;11650;48.106;-1.696;2024-01-30T02:45:30;11.37;;;4.13;;
22967;SDS011;11650;48.106;-1.696;2024-01-30T02:47:55;10.73;;;4.70;;
22967;SDS011;11650;48.106;-1.696;2024-01-30T02:50:21;16.30;;;4.13;;
22967;SDS011;11650;48.106;-1.696;2024-01-30T02:52:46;13.47;;;3.90;;
22967;SDS011;11650;48.106;-1.696;2024-01-30T02:55:12;12.90;;;3.27;;
22967;SDS011;11650;48.106;-1.696;2024-01-30T02:57:38;12.37;;;3.73;;
22967;SDS011;11650;48.106;-1.696;2024-01-30T03:00:04;13.63;;;3.33;;
22967;SDS011;11650;48.106;-1.696;2024-01-30T03:02:31;13.80;;;3.30;;
22967;SDS011;11650;48.106;-1.696;2024-01-30T03:04:58;9.70;;;2.83;;
22967;SDS011;11650;48.106;-1.696;2024-01-30T03:07:24;7.50;;;2.40;;
22967;SDS011;11650;48.106;-1.696;2024-01-30T03:09:50;9.87;;;2.13;;
22967;SDS011;11650;48.106;-1.696;2024-01-30T03:12:15;8.50;;;1.93;;
22967;SDS011;11650;48.106;-1.696;2024-01-30T03:14:41;7.57;;;2.07;;
22967;SDS011;11650;48.106;-1.696;2024-01-30T03:17:07;9.13;;;1.93;;
22967;SDS011;11650;48.106;-1.696;2024-01-30T03:19:32;7.17;;;2.00;;
22967;SDS011;11650;48.106;-1.696;2024-01-30T03:21:58;4.37;;;1.70;;
22967;SDS011;11650;48.106;-1.696;2024-01-30T03:24:24;4.50;;;1.47;;
22967;SDS011;11650;48.106;-1.696;2024-01-30T03:26:50;3.30;;;1.20;;
22967;SDS011;11650;48.106;-1.696;2024-01-30T03:29:15;3.80;;;1.03;;
22967;SDS011;11650;48.106;-1.696;2024-01-30T03:31:41;3.37;;;1.00;;
22967;SDS011;11650;48.106;-1.696;2024-01-30T03:34:07;4.60;;;1.10;;
22967;SDS011;11650;48.106;-1.696;2024-01-30T03:36:32;2.20;;;0.80;;
22967;SDS011;11650;48.106;-1.696;2024-01-30T03:38:59;5.90;;;1.47;;
22967;SDS011;11650;48.106;-1.696;2024-01-30T03:41:25;3.77;;;1.07;;
22967;SDS011;11650;48.106;-1.696;2024-01-30T03:43:51;4.53;;;1.00;;
22967;SDS011;11650;48.106;-1.696;2024-01-30T03:46:16;2.93;;;1.10;;
22967;SDS011;11650;48.106;-1.696;2024-01-30T03:48:42;2.17;;;1.10;;
22967;SDS011;11650;48.106;-1.696;2024-01-30T03:51:08;5.93;;;1.00;;
22967;SDS011;11650;48.106;-1.696;2024-01-30T03:53:39;3.63;;;1.00;;
22967;SDS011;11650;48.106;-1.696;2024-01-30T03:56:08;2.30;;;0.90;;
22967;SDS011;11650;48.106;-1.696;2024-01-30T03:58:34;5.37;;;1.10;;
22967;SDS011;11650;48.106;-1.696;2024-01-30T04:01:00;2.70;;;1.07;;
22967;SDS011;11650;48.106;-1.696;2024-01-30T04:03:26;1.80;;;0.77;;
22967;SDS011;11650;48.106;-1.696;2024-01-30T04:05:52;3.83;;;1.00;;
22967;SDS011;11650;48.106;-1.696;2024-01-30T04:08:18;3.20;;;0.87;;
22967;SDS011;11650;48.106;-1.696;2024-01-30T04:10:44;3.40;;;0.80;;
22967;SDS011;11650;48.106;-1.696;2024-01-30T04:13:09;4.93;;;1.13;;
22967;SDS011;11650;48.106;-1.696;2024-01-30T04:15:35;1.93;;;0.80;;
22967;SDS011;11650;48.106;-1.696;2024-01-30T04:18:01;3.30;;;1.20;;
22967;SDS011;11650;48.106;-1.696;2024-01-30T04:20:27;2.30;;;0.80;;
22967;SDS011;11650;48.106;-1.696;2024-01-30T04:22:52;6.17;;;1.00;;
22967;SDS011;11650;48.106;-1.696;2024-01-30T04:25:18;1.53;;;0.87;;
22967;SDS011;11650;48.106;-1.696;2024-01-30T04:27:44;3.20;;;0.77;;
22967;SDS011;11650;48.106;-1.696;2024-01-30T04:30:10;3.97;;;1.20;;
22967;SDS011;11650;48.106;-1.696;2024-01-30T04:32:36;3.60;;;1.10;;
22967;SDS011;11650;48.106;-1.696;2024-01-30T04:35:02;2.00;;;0.80;;
22967;SDS011;11650;48.106;-1.696;2024-01-30T04:37:28;5.17;;;1.10;;
22967;SDS011;11650;48.106;-1.696;2024-01-30T04:39:53;4.03;;;0.90;;
22967;SDS011;11650;48.106;-1.696;2024-01-30T04:42:19;3.20;;;0.90;;
22967;SDS011;11650;48.106;-1.696;2024-01-30T04:44:45;4.60;;;1.00;;
22967;SDS011;11650;48.106;-1.696;2024-01-30T04:47:10;2.37;;;0.97;;
22967;SDS011;11650;48.106;-1.696;2024-01-30T04:49:38;4.27;;;0.90;;
22967;SDS011;11650;48.106;-1.696;2024-01-30T04:52:04;3.33;;;1.33;;
22967;SDS011;11650;48.106;-1.696;2024-01-30T04:54:30;2.57;;;1.00;;
22967;SDS011;11650;48.106;-1.696;2024-01-30T04:56:56;3.90;;;0.80;;
22967;SDS011;11650;48.106;-1.696;2024-01-30T04:59:22;1.80;;;1.00;;
22967;SDS011;11650;48.106;-1.696;2024-01-30T05:01:47;3.60;;;1.00;;
22967;SDS011;11650;48.106;-1.696;2024-01-30T05:04:13;2.00;;;0.90;;
22967;SDS011;11650;48.106;-1.696;2024-01-30T05:06:38;1.77;;;1.00;;
22967;SDS011;11650;48.106;-1.696;2024-01-30T05:09:04;3.80;;;0.93;;
22967;SDS011;11650;48.106;-1.696;2024-01-30T05:11:30;2.73;;;1.30;;
22967;SDS011;11650;48.106;-1.696;2024-01-30T05:13:56;1.77;;;1.00;;
22967;SDS011;11650;48.106;-1.696;2024-01-30T05:16:22;2.87;;;1.00;;
22967;SDS011;11650;48.106;-1.696;2024-01-30T05:18:48;3.03;;;0.90;;
22967;SDS011;11650;48.106;-1.696;2024-01-30T05:21:13;2.87;;;0.93;;
22967;SDS011;11650;48.106;-1.696;2024-01-30T05:23:39;1.93;;;1.00;;
22967;SDS011;11650;48.106;-1.696;2024-01-30T05:26:06;2.27;;;1.00;;
22967;SDS011;11650;48.106;-1.696;2024-01-30T05:28:32;3.83;;;1.30;;
22967;SDS011;11650;48.106;-1.696;2024-01-30T05:30:58;1.50;;;0.93;;
22967;SDS011;11650;48.106;-1.696;2024-01-30T05:33:24;1.97;;;0.90;;
22967;SDS011;11650;48.106;-1.696;2024-01-30T05:35:50;3.07;;;0.80;;
22967;SDS011;11650;48.106;-1.696;2024-01-30T05:38:19;5.07;;;0.93;;
22967;SDS011;11650;48.106;-1.696;2024-01-30T05:40:44;2.50;;;0.80;;
22967;SDS011;11650;48.106;-1.696;2024-01-30T05:43:10;2.97;;;0.90;;
22967;SDS011;11650;48.106;-1.696;2024-01-30T05:45:36;1.77;;;0.70;;
22967;SDS011;11650;48.106;-1.696;2024-01-30T05:48:02;2.43;;;0.90;;
22967;SDS011;11650;48.106;-1.696;2024-01-30T05:50:28;3.77;;;0.70;;
22967;SDS011;11650;48.106;-1.696;2024-01-30T05:52:54;3.43;;;0.70;;
22967;SDS011;11650;48.106;-1.696;2024-01-30T05:55:19;1.77;;;0.90;;
22967;SDS011;11650;48.106;-1.696;2024-01-30T05:57:45;2.53;;;0.80;;
22967;SDS011;11650;48.106;-1.696;2024-01-30T06:00:10;2.13;;;0.80;;
22967;SDS011;11650;48.106;-1.696;2024-01-30T06:02:36;4.67;;;1.10;;
22967;SDS011;11650;48.106;-1.696;2024-01-30T06:05:02;1.93;;;0.70;;
22967;SDS011;11650;48.106;-1.696;2024-01-30T06:07:28;1.43;;;0.70;;
22967;SDS011;11650;48.106;-1.696;2024-01-30T06:09:53;1.53;;;0.80;;
22967;SDS011;11650;48.106;-1.696;2024-01-30T06:12:19;2.17;;;0.80;;
22967;SDS011;11650;48.106;-1.696;2024-01-30T06:14:44;2.70;;;0.80;;
22967;SDS011;11650;48.106;-1.696;2024-01-30T06:17:10;1.87;;;0.80;;
22967;SDS011;11650;48.106;-1.696;2024-01-30T06:19:37;1.87;;;0.80;;
22967;SDS011;11650;48.106;-1.696;2024-01-30T06:22:04;3.17;;;0.87;;
22967;SDS011;11650;48.106;-1.696;2024-01-30T06:24:29;2.40;;;1.10;;
22967;SDS011;11650;48.106;-1.696;2024-01-30T06:26:55;1.80;;;0.90;;
22967;SDS011;11650;48.106;-1.696;2024-01-30T06:29:21;2.23;;;0.90;;
22967;SDS011;11650;48.106;-1.696;2024-01-30T06:31:47;4.07;;;1.37;;
22967;SDS011;11650;48.106;-1.696;2024-01-30T06:34:12;1.67;;;1.10;;
22967;SDS011;11650;48.106;-1.696;2024-01-30T06:36:38;2.80;;;1.10;;
22967;SDS011;11650;48.106;-1.696;2024-01-30T06:39:04;4.00;;;1.13;;
22967;SDS011;11650;48.106;-1.696;2024-01-30T06:41:30;3.57;;;1.30;;
22967;SDS011;11650;48.106;-1.696;2024-01-30T06:43:56;2.97;;;1.27;;
22967;SDS011;11650;48.106;-1.696;2024-01-30T06:46:22;9.57;;;2.77;;
22967;SDS011;11650;48.106;-1.696;2024-01-30T06:48:47;6.43;;;2.50;;
22967;SDS011;11650;48.106;-1.696;2024-01-30T06:51:13;10.93;;;4.50;;
22967;SDS011;11650;48.106;-1.696;2024-01-30T06:53:38;19.03;;;9.43;;
22967;SDS011;11650;48.106;-1.696;2024-01-30T06:56:04;22.37;;;9.67;;
22967;SDS011;11650;48.106;-1.696;2024-01-30T06:58:30;25.90;;;10.33;;
22967;SDS011;11650;48.106;-1.696;2024-01-30T07:00:57;28.93;;;11.63;;
22967;SDS011;11650;48.106;-1.696;2024-01-30T07:03:23;27.67;;;11.00;;
22967;SDS011;11650;48.106;-1.696;2024-01-30T07:05:49;27.27;;;11.30;;
22967;SDS011;11650;48.106;-1.696;2024-01-30T07:08:17;28.60;;;11.70;;
22967;SDS011;11650;48.106;-1.696;2024-01-30T07:10:43;34.77;;;13.03;;
22967;SDS011;11650;48.106;-1.696;2024-01-30T07:13:12;29.03;;;12.67;;
22967;SDS011;11650;48.106;-1.696;2024-01-30T07:15:38;30.77;;;12.77;;
22967;SDS011;11650;48.106;-1.696;2024-01-30T07:18:04;29.43;;;11.83;;
22967;SDS011;11650;48.106;-1.696;2024-01-30T07:20:30;27.53;;;11.03;;
22967;SDS011;11650;48.106;-1.696;2024-01-30T07:22:57;23.37;;;10.87;;
22967;SDS011;11650;48.106;-1.696;2024-01-30T07:25:23;25.00;;;11.10;;
22967;SDS011;11650;48.106;-1.696;2024-01-30T07:27:52;23.33;;;8.93;;
22967;SDS011;11650;48.106;-1.696;2024-01-30T07:30:18;23.63;;;8.07;;
22967;SDS011;11650;48.106;-1.696;2024-01-30T07:32:45;20.60;;;6.80;;
22967;SDS011;11650;48.106;-1.696;2024-01-30T07:35:11;18.17;;;7.10;;
22967;SDS011;11650;48.106;-1.696;2024-01-30T07:37:37;19.83;;;5.67;;
22967;SDS011;11650;48.106;-1.696;2024-01-30T07:40:03;25.40;;;6.47;;
22967;SDS011;11650;48.106;-1.696;2024-01-30T07:42:29;17.37;;;6.20;;
22967;SDS011;11650;48.106;-1.696;2024-01-30T07:44:55;17.03;;;4.93;;
22967;SDS011;11650;48.106;-1.696;2024-01-30T07:47:20;12.07;;;4.80;;
22967;SDS011;11650;48.106;-1.696;2024-01-30T07:49:46;11.10;;;4.70;;
22967;SDS011;11650;48.106;-1.696;2024-01-30T07:52:12;13.67;;;4.07;;
22967;SDS011;11650;48.106;-1.696;2024-01-30T07:54:37;11.07;;;4.27;;
22967;SDS011;11650;48.106;-1.696;2024-01-30T07:57:04;8.13;;;3.60;;
22967;SDS011;11650;48.106;-1.696;2024-01-30T07:59:30;7.37;;;3.00;;
22967;SDS011;11650;48.106;-1.696;2024-01-30T08:01:55;7.90;;;3.20;;
22967;SDS011;11650;48.106;-1.696;2024-01-30T08:04:21;6.97;;;2.90;;
22967;SDS011;11650;48.106;-1.696;2024-01-30T08:06:47;8.60;;;2.70;;
22967;SDS011;11650;48.106;-1.696;2024-01-30T08:09:12;7.00;;;2.40;;
22967;SDS011;11650;48.106;-1.696;2024-01-30T08:11:39;4.10;;;1.90;;
22967;SDS011;11650;48.106;-1.696;2024-01-30T08:14:05;2.90;;;1.80;;
22967;SDS011;11650;48.106;-1.696;2024-01-30T08:16:30;5.17;;;1.93;;
22967;SDS011;11650;48.106;-1.696;2024-01-30T08:18:56;4.67;;;1.90;;
22967;SDS011;11650;48.106;-1.696;2024-01-30T08:21:22;6.63;;;2.20;;
22967;SDS011;11650;48.106;-1.696;2024-01-30T08:23:48;4.53;;;2.20;;
22967;SDS011;11650;48.106;-1.696;2024-01-30T08:26:14;3.57;;;2.50;;
22967;SDS011;11650;48.106;-1.696;2024-01-30T08:28:39;5.97;;;2.40;;
22967;SDS011;11650;48.106;-1.696;2024-01-30T08:31:05;6.33;;;2.00;;
22967;SDS011;11650;48.106;-1.696;2024-01-30T08:33:30;3.80;;;2.27;;
22967;SDS011;11650;48.106;-1.696;2024-01-30T08:35:56;4.53;;;2.63;;
22967;SDS011;11650;48.106;-1.696;2024-01-30T08:38:22;4.83;;;2.90;;
22967;SDS011;11650;48.106;-1.696;2024-01-30T08:40:48;5.37;;;2.60;;
22967;SDS011;11650;48.106;-1.696;2024-01-30T08:43:13;7.80;;;2.90;;
22967;SDS011;11650;48.106;-1.696;2024-01-30T08:45:40;4.00;;;2.63;;
22967;SDS011;11650;48.106;-1.696;2024-01-30T08:48:06;4.50;;;2.50;;
22967;SDS011;11650;48.106;-1.696;2024-01-30T08:50:32;4.57;;;2.83;;
22967;SDS011;11650;48.106;-1.696;2024-01-30T08:52:58;5.97;;;2.57;;
22967;SDS011;11650;48.106;-1.696;2024-01-30T08:55:24;6.27;;;2.57;;
22967;SDS011;11650;48.106;-1.696;2024-01-30T08:57:49;4.87;;;3.03;;
22967;SDS011;11650;48.106;-1.696;2024-01-30T09:00:17;5.33;;;2.90;;
22967;SDS011;11650;48.106;-1.696;2024-01-30T09:02:42;3.47;;;2.60;;
22967;SDS011;11650;48.106;-1.696;2024-01-30T09:05:08;5.60;;;3.27;;
22967;SDS011;11650;48.106;-1.696;2024-01-30T09:07:34;3.63;;;2.20;;
22967;SDS011;11650;48.106;-1.696;2024-01-30T09:09:59;8.33;;;3.10;;
22967;SDS011;11650;48.106;-1.696;2024-01-30T09:12:25;4.77;;;2.63;;
22967;SDS011;11650;48.106;-1.696;2024-01-30T09:14:51;8.23;;;2.77;;
22967;SDS011;11650;48.106;-1.696;2024-01-30T09:17:16;5.23;;;3.53;;
22967;SDS011;11650;48.106;-1.696;2024-01-30T09:19:42;3.90;;;1.90;;
22967;SDS011;11650;48.106;-1.696;2024-01-30T09:22:07;3.40;;;2.60;;
22967;SDS011;11650;48.106;-1.696;2024-01-30T09:24:33;3.17;;;2.20;;
22967;SDS011;11650;48.106;-1.696;2024-01-30T09:26:59;4.03;;;2.30;;
22967;SDS011;11650;48.106;-1.696;2024-01-30T09:29:25;6.07;;;2.60;;
22967;SDS011;11650;48.106;-1.696;2024-01-30T09:31:51;3.90;;;2.10;;
22967;SDS011;11650;48.106;-1.696;2024-01-30T09:34:17;5.17;;;2.47;;
22967;SDS011;11650;48.106;-1.696;2024-01-30T09:36:42;3.50;;;1.97;;
22967;SDS011;11650;48.106;-1.696;2024-01-30T09:39:08;3.37;;;2.20;;
22967;SDS011;11650;48.106;-1.696;2024-01-30T09:41:35;3.23;;;1.90;;
22967;SDS011;11650;48.106;-1.696;2024-01-30T09:44:13;2.97;;;1.70;;
22967;SDS011;11650;48.106;-1.696;2024-01-30T09:46:41;2.43;;;1.70;;
22967;SDS011;11650;48.106;-1.696;2024-01-30T09:49:08;3.80;;;1.60;;
22967;SDS011;11650;48.106;-1.696;2024-01-30T09:51:34;2.17;;;1.63;;
22967;SDS011;11650;48.106;-1.696;2024-01-30T09:54:01;3.30;;;1.60;;
22967;SDS011;11650;48.106;-1.696;2024-01-30T09:56:28;3.90;;;2.20;;
22967;SDS011;11650;48.106;-1.696;2024-01-30T09:58:54;2.67;;;1.90;;
22967;SDS011;11650;48.106;-1.696;2024-01-30T10:01:19;3.53;;;1.67;;
22967;SDS011;11650;48.106;-1.696;2024-01-30T10:03:45;3.40;;;1.60;;
22967;SDS011;11650;48.106;-1.696;2024-01-30T10:06:11;3.47;;;1.90;;
22967;SDS011;11650;48.106;-1.696;2024-01-30T10:08:37;2.83;;;1.60;;
22967;SDS011;11650;48.106;-1.696;2024-01-30T10:11:02;3.63;;;2.00;;
22967;SDS011;11650;48.106;-1.696;2024-01-30T10:13:29;4.17;;;1.70;;
22967;SDS011;11650;48.106;-1.696;2024-01-30T10:15:54;3.47;;;1.63;;
22967;SDS011;11650;48.106;-1.696;2024-01-30T10:18:22;4.03;;;1.80;;
22967;SDS011;11650;48.106;-1.696;2024-01-30T10:20:48;3.13;;;1.83;;
22967;SDS011;11650;48.106;-1.696;2024-01-30T10:23:13;2.30;;;1.47;;
22967;SDS011;11650;48.106;-1.696;2024-01-30T10:25:39;4.87;;;1.57;;
22967;SDS011;11650;48.106;-1.696;2024-01-30T10:28:05;3.73;;;1.60;;
22967;SDS011;11650;48.106;-1.696;2024-01-30T10:30:31;4.93;;;1.80;;
22967;SDS011;11650;48.106;-1.696;2024-01-30T10:32:56;4.13;;;1.80;;
22967;SDS011;11650;48.106;-1.696;2024-01-30T10:35:22;2.40;;;1.60;;
22967;SDS011;11650;48.106;-1.696;2024-01-30T10:37:47;2.93;;;1.60;;
22967;SDS011;11650;48.106;-1.696;2024-01-30T10:40:14;3.23;;;1.50;;
22967;SDS011;11650;48.106;-1.696;2024-01-30T10:42:44;6.13;;;1.30;;
22967;SDS011;11650;48.106;-1.696;2024-01-30T10:47:42;2.60;;;1.40;;
22967;SDS011;11650;48.106;-1.696;2024-01-30T10:50:13;4.17;;;1.20;;
22967;SDS011;11650;48.106;-1.696;2024-01-30T10:52:39;1.70;;;1.37;;
22967;SDS011;11650;48.106;-1.696;2024-01-30T10:55:07;4.23;;;1.40;;
22967;SDS011;11650;48.106;-1.696;2024-01-30T10:57:36;3.53;;;1.30;;
22967;SDS011;11650;48.106;-1.696;2024-01-30T11:00:06;2.77;;;1.40;;
22967;SDS011;11650;48.106;-1.696;2024-01-30T11:02:40;4.03;;;1.20;;
22967;SDS011;11650;48.106;-1.696;2024-01-30T11:05:08;1.70;;;1.10;;
22967;SDS011;11650;48.106;-1.696;2024-01-30T11:07:34;2.73;;;1.40;;
22967;SDS011;11650;48.106;-1.696;2024-01-30T11:10:03;2.30;;;1.20;;
22967;SDS011;11650;48.106;-1.696;2024-01-30T11:12:33;3.03;;;1.60;;
22967;SDS011;11650;48.106;-1.696;2024-01-30T11:15:09;2.23;;;1.13;;
22967;SDS011;11650;48.106;-1.696;2024-01-30T11:17:54;3.37;;;1.70;;
22967;SDS011;11650;48.106;-1.696;2024-01-30T11:20:25;2.60;;;1.70;;
22967;SDS011;11650;48.106;-1.696;2024-01-30T11:22:53;5.60;;;1.70;;
22967;SDS011;11650;48.106;-1.696;2024-01-30T11:25:21;5.00;;;1.67;;
22967;SDS011;11650;48.106;-1.696;2024-01-30T11:27:49;3.63;;;1.50;;
22967;SDS011;11650;48.106;-1.696;2024-01-30T11:33:02;5.87;;;1.73;;
22967;SDS011;11650;48.106;-1.696;2024-01-30T11:35:32;3.60;;;1.10;;
22967;SDS011;11650;48.106;-1.696;2024-01-30T11:38:00;4.33;;;1.20;;
22967;SDS011;11650;48.106;-1.696;2024-01-30T11:40:27;3.53;;;1.10;;
22967;SDS011;11650;48.106;-1.696;2024-01-30T11:42:54;3.80;;;1.00;;
22967;SDS011;11650;48.106;-1.696;2024-01-30T11:45:20;3.73;;;1.03;;
22967;SDS011;11650;48.106;-1.696;2024-01-30T11:47:46;4.37;;;1.30;;
22967;SDS011;11650;48.106;-1.696;2024-01-30T11:50:12;4.53;;;1.53;;
22967;SDS011;11650;48.106;-1.696;2024-01-30T11:52:38;3.20;;;1.30;;
22967;SDS011;11650;48.106;-1.696;2024-01-30T11:55:04;6.67;;;1.50;;
22967;SDS011;11650;48.106;-1.696;2024-01-30T11:57:31;5.27;;;1.50;;
22967;SDS011;11650;48.106;-1.696;2024-01-30T11:59:56;3.73;;;1.57;;
22967;SDS011;11650;48.106;-1.696;2024-01-30T12:02:22;5.20;;;1.40;;
22967;SDS011;11650;48.106;-1.696;2024-01-30T12:04:48;6.07;;;1.50;;
22967;SDS011;11650;48.106;-1.696;2024-01-30T12:07:13;4.87;;;1.50;;
22967;SDS011;11650;48.106;-1.696;2024-01-30T12:09:42;4.20;;;1.43;;
22967;SDS011;11650;48.106;-1.696;2024-01-30T12:12:07;2.40;;;1.10;;
22967;SDS011;11650;48.106;-1.696;2024-01-30T12:14:39;3.17;;;1.13;;
22967;SDS011;11650;48.106;-1.696;2024-01-30T12:17:05;1.83;;;1.00;;
22967;SDS011;11650;48.106;-1.696;2024-01-30T12:19:32;2.80;;;1.13;;
22967;SDS011;11650;48.106;-1.696;2024-01-30T12:21:58;2.97;;;1.27;;
22967;SDS011;11650;48.106;-1.696;2024-01-30T12:24:27;4.30;;;1.40;;
22967;SDS011;11650;48.106;-1.696;2024-01-30T12:26:58;7.53;;;1.27;;
22967;SDS011;11650;48.106;-1.696;2024-01-30T12:29:25;4.27;;;1.00;;
22967;SDS011;11650;48.106;-1.696;2024-01-30T12:31:53;3.83;;;0.97;;
22967;SDS011;11650;48.106;-1.696;2024-01-30T12:34:19;3.73;;;1.00;;
22967;SDS011;11650;48.106;-1.696;2024-01-30T12:36:46;4.13;;;1.10;;
22967;SDS011;11650;48.106;-1.696;2024-01-30T12:39:13;4.20;;;1.20;;
22967;SDS011;11650;48.106;-1.696;2024-01-30T12:41:40;5.37;;;1.13;;
22967;SDS011;11650;48.106;-1.696;2024-01-30T12:44:05;2.43;;;1.10;;
22967;SDS011;11650;48.106;-1.696;2024-01-30T12:46:32;4.33;;;1.20;;
22967;SDS011;11650;48.106;-1.696;2024-01-30T12:48:59;2.03;;;1.13;;
22967;SDS011;11650;48.106;-1.696;2024-01-30T12:51:25;2.77;;;1.20;;
22967;SDS011;11650;48.106;-1.696;2024-01-30T12:53:50;4.43;;;1.10;;
22967;SDS011;11650;48.106;-1.696;2024-01-30T12:56:16;2.90;;;1.33;;
22967;SDS011;11650;48.106;-1.696;2024-01-30T12:58:42;2.80;;;0.83;;
22967;SDS011;11650;48.106;-1.696;2024-01-30T13:01:08;1.40;;;0.80;;
22967;SDS011;11650;48.106;-1.696;2024-01-30T13:03:34;2.13;;;0.70;;
22967;SDS011;11650;48.106;-1.696;2024-01-30T13:06:00;2.33;;;1.20;;
22967;SDS011;11650;48.106;-1.696;2024-01-30T13:08:26;1.60;;;0.80;;
22967;SDS011;11650;48.106;-1.696;2024-01-30T13:10:52;3.70;;;0.80;;
22967;SDS011;11650;48.106;-1.696;2024-01-30T13:13:17;3.33;;;0.97;;
22967;SDS011;11650;48.106;-1.696;2024-01-30T13:15:43;3.30;;;1.10;;
22967;SDS011;11650;48.106;-1.696;2024-01-30T13:18:09;1.57;;;0.90;;
22967;SDS011;11650;48.106;-1.696;2024-01-30T13:20:35;2.63;;;0.90;;
22967;SDS011;11650;48.106;-1.696;2024-01-30T13:23:00;1.77;;;0.90;;
22967;SDS011;11650;48.106;-1.696;2024-01-30T13:25:26;2.53;;;0.63;;
22967;SDS011;11650;48.106;-1.696;2024-01-30T13:27:52;1.13;;;0.60;;
22967;SDS011;11650;48.106;-1.696;2024-01-30T13:30:17;3.17;;;0.90;;
22967;SDS011;11650;48.106;-1.696;2024-01-30T13:32:43;1.97;;;0.50;;
22967;SDS011;11650;48.106;-1.696;2024-01-30T13:35:09;1.90;;;0.60;;
22967;SDS011;11650;48.106;-1.696;2024-01-30T13:37:35;2.90;;;0.80;;
22967;SDS011;11650;48.106;-1.696;2024-01-30T13:40:01;2.70;;;0.87;;
22967;SDS011;11650;48.106;-1.696;2024-01-30T13:42:28;2.83;;;0.93;;
22967;SDS011;11650;48.106;-1.696;2024-01-30T13:44:54;4.20;;;1.43;;
22967;SDS011;11650;48.106;-1.696;2024-01-30T13:47:19;2.60;;;0.80;;
22967;SDS011;11650;48.106;-1.696;2024-01-30T13:49:46;4.70;;;0.90;;
22967;SDS011;11650;48.106;-1.696;2024-01-30T13:52:12;3.80;;;0.83;;
22967;SDS011;11650;48.106;-1.696;2024-01-30T13:54:38;3.00;;;0.70;;
22967;SDS011;11650;48.106;-1.696;2024-01-30T13:57:04;2.63;;;0.80;;
22967;SDS011;11650;48.106;-1.696;2024-01-30T13:59:30;1.70;;;0.83;;
22967;SDS011;11650;48.106;-1.696;2024-01-30T14:01:55;3.13;;;0.90;;
22967;SDS011;11650;48.106;-1.696;2024-01-30T14:04:21;3.10;;;0.87;;
22967;SDS011;11650;48.106;-1.696;2024-01-30T14:06:46;2.87;;;0.70;;
22967;SDS011;11650;48.106;-1.696;2024-01-30T14:09:12;3.33;;;1.17;;
22967;SDS011;11650;48.106;-1.696;2024-01-30T14:11:40;1.53;;;0.60;;
22967;SDS011;11650;48.106;-1.696;2024-01-30T14:14:06;2.33;;;0.70;;
22967;SDS011;11650;48.106;-1.696;2024-01-30T14:16:32;2.67;;;0.70;;
22967;SDS011;11650;48.106;-1.696;2024-01-30T14:18:57;2.43;;;0.70;;
22967;SDS011;11650;48.106;-1.696;2024-01-30T14:21:23;1.63;;;0.67;;
22967;SDS011;11650;48.106;-1.696;2024-01-30T14:23:49;0.90;;;0.63;;
22967;SDS011;11650;48.106;-1.696;2024-01-30T14:26:14;3.73;;;0.80;;
22967;SDS011;11650;48.106;-1.696;2024-01-30T14:28:40;2.60;;;0.80;;